createdAt,value
2018-06-23T00:03:07.345Z,14.96
2018-06-23T00:08:00.390Z,14.88
2018-06-23T00:12:53.482Z,14.83
2018-06-23T00:17:46.481Z,14.77
2018-06-23T00:22:39.436Z,14.79
2018-06-23T00:27:32.557Z,14.79
2018-06-23T00:32:25.557Z,14.74
2018-06-23T00:37:18.640Z,14.68
2018-06-23T00:42:11.703Z,14.63
2018-06-23T00:47:04.758Z,14.62
2018-06-23T00:51:57.720Z,14.59
2018-06-23T00:56:50.807Z,14.63
2018-06-23T01:01:43.786Z,14.52
2018-06-23T01:06:36.805Z,14.48
2018-06-23T01:11:29.782Z,14.43
2018-06-23T01:16:22.761Z,14.41
2018-06-23T01:21:15.825Z,14.39
2018-06-23T01:26:08.814Z,14.36
2018-06-23T01:31:01.863Z,14.36
2018-06-23T01:35:54.771Z,14.40
2018-06-23T01:40:47.851Z,14.41
2018-06-23T01:45:40.959Z,14.37
2018-06-23T01:50:34.008Z,14.38
2018-06-23T01:55:26.963Z,14.36
2018-06-23T02:00:19.937Z,14.35
2018-06-23T02:05:12.983Z,14.25
2018-06-23T02:10:05.987Z,14.17
2018-06-23T02:15:04.660Z,14.18
2018-06-23T02:20:03.401Z,14.22
2018-06-23T02:25:01.985Z,14.14
2018-06-23T02:30:00.454Z,14.02
2018-06-23T02:35:03.897Z,13.91
2018-06-23T02:39:57.007Z,13.87
2018-06-23T02:44:50.011Z,13.87
2018-06-23T02:49:42.997Z,13.86
2018-06-23T02:54:35.968Z,13.82
2018-06-23T02:59:28.899Z,13.77
2018-06-23T03:04:21.892Z,13.78
2018-06-23T03:09:14.902Z,13.79
2018-06-23T03:14:08.017Z,13.79
2018-06-23T03:19:01.010Z,13.80
2018-06-23T03:23:54.028Z,13.74
2018-06-23T03:28:47.019Z,13.69
2018-06-23T03:33:39.972Z,13.67
2018-06-23T03:38:33.081Z,13.69
2018-06-23T03:43:26.131Z,13.68
2018-06-23T03:48:19.153Z,13.65
2018-06-23T03:53:12.113Z,13.60
2018-06-23T03:58:05.451Z,13.57
2018-06-23T04:02:58.483Z,13.58
2018-06-23T04:07:51.498Z,13.60
2018-06-23T04:12:44.477Z,13.55
2018-06-23T04:17:37.592Z,13.53
2018-06-23T04:22:30.512Z,13.52
2018-06-23T04:27:23.546Z,13.51
2018-06-23T04:32:16.821Z,13.50
2018-06-23T04:37:09.899Z,13.49
2018-06-23T04:42:03.170Z,13.48
2018-06-23T04:46:56.084Z,13.44
2018-06-23T04:51:49.062Z,13.35
2018-06-23T04:56:42.037Z,13.32
2018-06-23T05:01:35.103Z,13.32
2018-06-23T05:06:28.220Z,13.28
2018-06-23T05:11:21.320Z,13.27
2018-06-23T05:16:14.316Z,13.26
2018-06-23T05:21:07.360Z,13.28
2018-06-23T05:26:00.393Z,13.28
2018-06-23T05:30:53.522Z,13.26
2018-06-23T05:35:46.622Z,13.26
2018-06-23T05:40:39.616Z,13.30
2018-06-23T05:45:32.604Z,13.34
2018-06-23T05:50:25.700Z,13.37
2018-06-23T05:55:18.660Z,13.44
2018-06-23T06:00:11.658Z,13.47
2018-06-23T06:05:05.318Z,13.56
2018-06-23T06:09:58.340Z,13.59
2018-06-23T06:14:51.474Z,13.61
2018-06-23T06:19:44.519Z,13.66
2018-06-23T06:24:37.523Z,13.72
2018-06-23T06:29:30.582Z,13.77
2018-06-23T06:34:23.607Z,13.80
2018-06-23T06:39:16.685Z,13.84
2018-06-23T06:44:09.666Z,13.89
2018-06-23T06:49:02.625Z,13.91
2018-06-23T06:53:55.801Z,13.91
2018-06-23T06:58:48.921Z,13.83
2018-06-23T07:03:41.928Z,13.77
2018-06-23T07:08:34.927Z,13.71
2018-06-23T07:13:27.895Z,13.70
2018-06-23T07:18:21.063Z,13.71
2018-06-23T07:23:14.023Z,13.67
2018-06-23T07:28:07.275Z,13.63
2018-06-23T07:33:00.495Z,13.65
2018-06-23T07:37:53.378Z,13.70
2018-06-23T07:42:46.804Z,13.67
2018-06-23T07:47:39.795Z,13.71
2018-06-23T07:52:32.738Z,13.78
2018-06-23T07:57:25.740Z,13.83
2018-06-23T08:02:18.899Z,13.80
2018-06-23T08:07:12.045Z,13.80
2018-06-23T08:12:05.070Z,13.88
2018-06-23T08:16:58.169Z,13.89
2018-06-23T08:21:51.225Z,13.99
2018-06-23T08:26:44.533Z,13.98
2018-06-23T08:31:37.697Z,14.07
2018-06-23T08:36:30.761Z,14.09
2018-06-23T08:41:23.846Z,14.15
2018-06-23T08:46:17.029Z,14.25
2018-06-23T08:51:10.195Z,14.43
2018-06-23T08:56:03.347Z,14.54
2018-06-23T09:00:56.629Z,14.70
2018-06-23T09:05:49.727Z,14.70
2018-06-23T09:10:42.705Z,14.75
2018-06-23T09:15:35.851Z,14.81
2018-06-23T09:20:28.946Z,14.97
2018-06-23T09:25:23.195Z,15.20
2018-06-23T09:30:16.204Z,15.53
2018-06-23T09:35:09.226Z,15.58
2018-06-23T09:40:02.353Z,15.52
2018-06-23T09:44:55.320Z,15.43
2018-06-23T09:49:48.332Z,15.36
2018-06-23T09:54:41.468Z,15.34
2018-06-23T09:59:34.728Z,15.45
2018-06-23T10:04:27.859Z,15.67
2018-06-23T10:09:21.120Z,15.85
2018-06-23T10:14:16.404Z,16.00
2018-06-23T10:19:09.665Z,16.25
2018-06-23T10:24:02.640Z,16.55
2018-06-23T10:28:55.693Z,16.61
2018-06-23T10:33:48.970Z,16.59
2018-06-23T10:38:42.301Z,16.62
2018-06-23T10:43:35.414Z,16.77
2018-06-23T10:48:28.631Z,17.28
2018-06-23T10:53:21.650Z,17.63
2018-06-23T10:58:14.850Z,17.75
2018-06-23T11:03:08.997Z,17.80
2018-06-23T11:08:02.366Z,17.72
2018-06-23T11:12:55.569Z,17.59
2018-06-23T11:17:48.840Z,17.57
2018-06-23T11:22:42.135Z,17.77
2018-06-23T11:32:59.963Z,18.03
2018-06-23T11:37:53.492Z,18.02
2018-06-23T11:42:46.647Z,18.14
2018-06-23T11:47:39.764Z,18.47
2018-06-23T11:52:32.828Z,18.59
2018-06-23T11:57:25.802Z,18.59
2018-06-23T12:02:18.781Z,18.70
2018-06-23T12:07:11.798Z,18.94
2018-06-23T12:12:04.885Z,19.07
2018-06-23T12:16:57.922Z,19.16
2018-06-23T12:21:50.955Z,19.29
2018-06-23T12:26:43.881Z,19.46
2018-06-23T12:31:37.013Z,19.38
2018-06-23T12:36:30.118Z,19.29
2018-06-23T12:41:23.239Z,19.24
2018-06-23T12:46:16.181Z,19.16
2018-06-23T12:51:09.174Z,19.10
2018-06-23T12:56:02.199Z,19.11
2018-06-23T13:00:55.229Z,19.24
2018-06-23T13:05:48.270Z,19.39
2018-06-23T13:10:41.464Z,19.39
2018-06-23T13:15:34.398Z,19.23
2018-06-23T13:20:27.389Z,19.00
2018-06-23T13:25:20.577Z,18.78
2018-06-23T13:30:13.914Z,18.54
2018-06-23T13:35:07.045Z,18.37
2018-06-23T13:40:00.109Z,18.41
2018-06-23T13:44:53.059Z,18.65
2018-06-23T13:49:46.039Z,18.79
2018-06-23T13:54:39.114Z,18.84
2018-06-23T13:59:32.217Z,18.84
2018-06-23T14:04:25.282Z,18.80
2018-06-23T14:09:18.365Z,18.70
2018-06-23T14:14:11.745Z,18.58
2018-06-23T14:19:05.076Z,18.49
2018-06-23T14:23:58.084Z,18.44
2018-06-23T14:28:51.047Z,18.28
2018-06-23T14:33:44.187Z,18.24
2018-06-23T14:38:37.745Z,18.30
2018-06-23T14:43:30.748Z,18.38
2018-06-23T14:48:23.711Z,18.41
2018-06-23T14:53:16.740Z,18.30
2018-06-23T14:58:09.855Z,18.16
2018-06-23T15:03:03.002Z,18.04
2018-06-23T15:08:11.844Z,17.98
2018-06-23T15:13:15.041Z,17.95
2018-06-23T15:18:08.066Z,17.91
2018-06-23T15:23:01.231Z,17.90
2018-06-23T15:27:54.248Z,17.81
2018-06-23T15:32:47.360Z,17.73
2018-06-23T15:37:40.541Z,17.60
2018-06-23T15:42:33.465Z,17.39
2018-06-23T15:47:26.436Z,17.21
2018-06-23T15:52:21.581Z,17.15
2018-06-23T15:57:14.638Z,17.17
2018-06-23T16:02:07.619Z,17.18
2018-06-23T16:07:00.756Z,17.22
2018-06-23T16:11:53.728Z,17.27
2018-06-23T16:16:47.306Z,17.29
2018-06-23T16:21:40.315Z,17.32
2018-06-23T16:26:33.359Z,17.33
2018-06-23T16:31:26.252Z,17.34
2018-06-23T16:36:19.286Z,17.30
2018-06-23T16:41:12.295Z,17.23
2018-06-23T16:46:05.251Z,17.20
2018-06-23T16:50:58.352Z,17.10
2018-06-23T16:55:51.343Z,17.09
2018-06-23T17:00:44.443Z,17.04
2018-06-23T17:05:37.490Z,17.01
2018-06-23T17:10:30.408Z,16.97
2018-06-23T17:15:23.361Z,16.93
2018-06-23T17:20:16.489Z,16.86
2018-06-23T17:25:09.511Z,16.73
2018-06-23T17:30:02.576Z,16.67
2018-06-23T17:34:55.672Z,16.63
2018-06-23T17:39:48.836Z,16.60
2018-06-23T17:44:41.811Z,16.55
2018-06-23T17:49:34.865Z,16.55
2018-06-23T17:54:27.812Z,16.49
2018-06-23T17:59:20.916Z,16.48
2018-06-23T18:04:14.174Z,16.44
2018-06-23T18:09:09.004Z,16.37
2018-06-23T18:14:02.154Z,16.34
2018-06-23T18:18:55.351Z,16.30
2018-06-23T18:23:48.356Z,16.21
2018-06-23T18:28:41.522Z,16.18
2018-06-23T18:33:34.559Z,16.16
2018-06-23T18:38:27.612Z,16.09
2018-06-23T18:43:20.696Z,16.06
2018-06-23T18:48:14.004Z,16.00
2018-06-23T18:53:07.187Z,15.94
2018-06-23T18:58:00.350Z,15.88
2018-06-23T19:02:53.464Z,15.77
2018-06-23T19:07:46.585Z,15.79
2018-06-23T19:12:39.848Z,15.80
2018-06-23T19:17:33.226Z,15.81
2018-06-23T19:22:26.284Z,15.80
2018-06-23T19:27:19.702Z,15.78
2018-06-23T19:32:12.883Z,15.70
2018-06-23T19:37:06.115Z,15.61
2018-06-23T19:41:59.160Z,15.56
2018-06-23T19:46:52.279Z,15.53
2018-06-23T19:51:45.373Z,15.51
2018-06-23T19:56:38.436Z,15.52
2018-06-23T20:01:31.552Z,15.52
2018-06-23T20:06:24.781Z,15.52
2018-06-23T20:11:17.807Z,15.50
2018-06-23T20:16:10.785Z,15.38
2018-06-23T20:21:03.821Z,15.29
2018-06-23T20:25:56.968Z,15.28
2018-06-23T20:30:49.996Z,15.22
2018-06-23T20:35:43.290Z,15.18
2018-06-23T20:40:36.795Z,15.17
2018-06-23T20:45:30.329Z,15.16
2018-06-23T20:50:24.066Z,15.15
2018-06-23T20:55:17.084Z,15.12
2018-06-23T21:00:10.436Z,15.03
2018-06-23T21:05:03.761Z,14.95
2018-06-23T21:09:56.952Z,15.01
2018-06-23T21:14:50.445Z,15.03
2018-06-23T21:19:44.081Z,15.03
2018-06-23T21:24:37.820Z,15.00
2018-06-23T21:29:30.746Z,14.96
2018-06-23T21:34:23.790Z,14.91
2018-06-23T21:39:16.885Z,14.85
2018-06-23T21:44:11.252Z,14.81
2018-06-23T21:49:04.609Z,14.78
2018-06-23T21:53:57.556Z,14.77
2018-06-23T21:58:50.470Z,14.79
2018-06-23T22:03:43.700Z,14.76
2018-06-23T22:08:36.724Z,14.71
2018-06-23T22:13:29.799Z,14.65
2018-06-23T22:18:23.667Z,14.64
2018-06-23T22:23:16.667Z,14.66
2018-06-23T22:28:09.779Z,14.63
2018-06-23T22:33:02.887Z,14.54
2018-06-23T22:37:56.337Z,14.54
2018-06-23T22:42:49.406Z,14.53
2018-06-23T22:47:42.443Z,14.52
2018-06-23T22:52:35.596Z,14.48
2018-06-23T22:57:28.624Z,14.46
2018-06-23T23:02:21.651Z,14.47
2018-06-23T23:07:14.682Z,14.44
2018-06-23T23:12:07.660Z,14.43
2018-06-23T23:17:00.690Z,14.38
2018-06-23T23:21:53.825Z,14.37
2018-06-23T23:26:46.772Z,14.35
2018-06-23T23:31:40.020Z,14.37
2018-06-23T23:36:32.970Z,14.32
2018-06-23T23:41:25.972Z,14.32
2018-06-23T23:46:19.059Z,14.27
2018-06-23T23:51:12.169Z,14.24
2018-06-23T23:56:05.130Z,14.22
